Time;durP1;ratioP1;P1;durP2;ratioP2;P2;SDS_P1;SDS_P2;PMS_P1;PMS_P2;Temp;Humidity;BMP_temperature;BMP_pressure;BME280_temperature;BME280_humidity;BME280_pressure;Samples;Min_cycle;Max_cycle;Signal;HPM_P1;HPM_P2
2022/04/09 00:02:06;;;;;;;;;;;16.20;67.80;;;;;;4997644;28;19918;-57
2022/04/09 00:04:32;;;;;;;;;;;16.30;67.60;;;;;;4996562;28;19917;-56
2022/04/09 00:06:57;;;;;;;;;;;16.20;67.80;;;;;;4997622;28;19910;-57
2022/04/09 00:09:23;;;;;;;;;;;16.20;68.20;;;;;;4997772;28;19910;-57
2022/04/09 00:11:49;;;;;;;;;;;16.20;67.80;;;;;;4997338;28;19909;-59
2022/04/09 00:14:15;;;;;;;;;;;16.30;67.70;;;;;;4997592;28;19920;-56
2022/04/09 00:16:41;;;;;;;;;;;16.30;67.80;;;;;;4997382;28;20243;-59
2022/04/09 00:19:06;;;;;;;;;;;16.20;67.70;;;;;;4997418;28;19963;-55
2022/04/09 00:21:32;;;;;;;;;;;16.30;67.80;;;;;;4997156;28;19918;-56
2022/04/09 00:23:58;;;;;;;;;;;16.20;68.00;;;;;;4997384;28;19910;-57
2022/04/09 00:26:23;;;;;;;;;;;16.30;67.80;;;;;;4997254;28;19910;-57
2022/04/09 00:28:49;;;;;;;;;;;16.20;67.90;;;;;;4997243;28;19965;-56
2022/04/09 00:31:15;;;;;;;;;;;16.20;68.10;;;;;;4997145;28;19909;-57
2022/04/09 00:33:40;;;;;;;;;;;16.20;68.00;;;;;;4997078;28;19917;-57
2022/04/09 00:36:06;;;;;;;;;;;16.20;68.00;;;;;;4997098;28;19917;-58
2022/04/09 00:38:31;;;;;;;;;;;16.20;67.70;;;;;;4997120;28;19965;-57
2022/04/09 00:40:57;;;;;;;;;;;16.20;68.00;;;;;;4996817;28;19918;-60
2022/04/09 00:43:22;;;;;;;;;;;16.10;68.10;;;;;;4996647;28;19965;-57
2022/04/09 00:45:49;;;;;;;;;;;16.20;68.10;;;;;;4996757;28;19910;-57
2022/04/09 00:48:15;;;;;;;;;;;16.20;68.10;;;;;;4996748;28;19909;-60
2022/04/09 00:50:40;;;;;;;;;;;16.20;68.10;;;;;;4996768;28;20344;-57
2022/04/09 00:53:07;;;;;;;;;;;16.20;68.20;;;;;;4996486;28;19910;-56
2022/04/09 00:58:19;;;;;;;;;;;16.10;68.10;;;;;;4996817;28;19955;-57
2022/04/09 01:00:45;;;;;;;;;;;16.10;68.20;;;;;;4996601;28;19910;-59
2022/04/09 01:03:11;;;;;;;;;;;16.00;68.30;;;;;;4996341;28;19932;-57
2022/04/09 01:05:38;;;;;;;;;;;16.10;68.20;;;;;;4996469;28;20349;-56
2022/04/09 01:08:03;;;;;;;;;;;16.00;68.30;;;;;;4996499;28;19909;-60
2022/04/09 01:10:29;;;;;;;;;;;16.10;68.10;;;;;;4996181;28;19920;-57
2022/04/09 01:12:54;;;;;;;;;;;16.00;68.10;;;;;;4996523;28;19913;-57
2022/04/09 01:15:20;;;;;;;;;;;16.10;68.30;;;;;;4996470;28;19910;-60
2022/04/09 01:17:46;;;;;;;;;;;16.00;68.50;;;;;;4996477;28;19932;-59
2022/04/09 01:20:18;;;;;;;;;;;16.00;68.50;;;;;;4996335;28;19949;-57
2022/04/09 01:22:44;;;;;;;;;;;15.90;68.50;;;;;;4996063;28;19918;-59
2022/04/09 01:25:10;;;;;;;;;;;16.00;68.50;;;;;;4996322;28;19964;-56
2022/04/09 01:27:35;;;;;;;;;;;16.00;68.40;;;;;;4996263;28;19914;-69
2022/04/09 01:30:01;;;;;;;;;;;15.90;68.50;;;;;;4995834;28;19996;-55
2022/04/09 01:32:26;;;;;;;;;;;16.00;68.10;;;;;;4996023;28;20276;-56
2022/04/09 01:34:55;;;;;;;;;;;16.00;68.00;;;;;;4996235;28;19910;-56
2022/04/09 01:37:20;;;;;;;;;;;16.00;67.80;;;;;;4995793;28;20281;-56
2022/04/09 01:39:46;;;;;;;;;;;16.00;67.50;;;;;;4995939;28;19910;-60
2022/04/09 01:42:11;;;;;;;;;;;16.00;67.40;;;;;;4995671;28;20063;-56
2022/04/09 01:44:37;;;;;;;;;;;16.00;67.60;;;;;;4995508;28;19917;-56
2022/04/09 01:47:03;;;;;;;;;;;16.00;67.80;;;;;;4995720;28;20400;-57
2022/04/09 01:49:29;;;;;;;;;;;16.00;67.70;;;;;;4995901;28;19910;-56
2022/04/09 01:51:54;;;;;;;;;;;16.00;67.60;;;;;;4995746;28;19936;-56
2022/04/09 01:54:20;;;;;;;;;;;15.90;67.40;;;;;;4995976;28;19918;-56
2022/04/09 01:56:45;;;;;;;;;;;16.00;67.50;;;;;;4995528;28;19921;-57
2022/04/09 01:59:11;;;;;;;;;;;16.00;67.50;;;;;;4995520;28;20417;-61
2022/04/09 02:01:37;;;;;;;;;;;16.00;67.70;;;;;;4995234;28;19921;-56
2022/04/09 02:04:02;;;;;;;;;;;16.00;67.60;;;;;;4995510;28;19910;-57
2022/04/09 02:06:28;;;;;;;;;;;16.10;67.30;;;;;;4995224;28;20266;-57
2022/04/09 02:08:54;;;;;;;;;;;16.00;67.40;;;;;;4995552;28;20251;-57
2022/04/09 02:11:19;;;;;;;;;;;16.10;67.00;;;;;;4995285;28;20365;-60
2022/04/09 02:13:45;;;;;;;;;;;16.00;66.20;;;;;;4995258;28;19914;-57
2022/04/09 02:16:10;;;;;;;;;;;16.00;66.50;;;;;;4995353;28;19909;-57
2022/04/09 02:18:36;;;;;;;;;;;16.00;66.60;;;;;;4995378;28;19917;-58
2022/04/09 02:21:02;;;;;;;;;;;16.00;66.20;;;;;;4994955;28;19917;-57
2022/04/09 02:23:27;;;;;;;;;;;16.00;66.10;;;;;;4995000;28;20354;-57
2022/04/09 02:25:53;;;;;;;;;;;16.00;66.10;;;;;;4994974;28;19910;-57
2022/04/09 02:28:18;;;;;;;;;;;16.00;66.10;;;;;;4995106;28;19945;-56
2022/04/09 02:30:44;;;;;;;;;;;16.00;65.60;;;;;;4995218;28;19914;-56
2022/04/09 02:33:09;;;;;;;;;;;16.00;65.30;;;;;;4995016;28;19916;-56
2022/04/09 02:35:35;;;;;;;;;;;16.10;64.80;;;;;;4995101;28;19953;-56
2022/04/09 02:38:02;;;;;;;;;;;16.10;64.50;;;;;;4995048;28;19960;-56
2022/04/09 02:40:28;;;;;;;;;;;16.10;64.70;;;;;;4994833;28;19910;-57
2022/04/09 02:42:54;;;;;;;;;;;16.10;64.90;;;;;;4994553;28;20017;-56
2022/04/09 02:45:21;;;;;;;;;;;16.10;64.80;;;;;;4995208;28;19945;-56
2022/04/09 02:47:46;;;;;;;;;;;16.10;64.80;;;;;;4994804;28;19947;-56
2022/04/09 02:50:12;;;;;;;;;;;16.10;64.80;;;;;;4994704;28;20342;-56
2022/04/09 02:52:39;;;;;;;;;;;16.10;65.10;;;;;;4994894;28;20357;-56
2022/04/09 02:55:05;;;;;;;;;;;16.10;65.20;;;;;;4993761;28;19953;-62
2022/04/09 02:57:31;;;;;;;;;;;16.10;65.20;;;;;;4994751;28;19917;-56
2022/04/09 02:59:56;;;;;;;;;;;16.10;65.30;;;;;;4994569;28;20362;-56
2022/04/09 03:02:22;;;;;;;;;;;16.00;65.30;;;;;;4994692;28;19918;-57
2022/04/09 03:04:47;;;;;;;;;;;16.00;65.40;;;;;;4994816;28;19917;-56
2022/04/09 03:07:13;;;;;;;;;;;16.00;65.50;;;;;;4994641;28;19916;-62
2022/04/09 03:09:39;;;;;;;;;;;16.00;65.50;;;;;;4994648;28;19910;-56
2022/04/09 03:12:04;;;;;;;;;;;16.00;65.30;;;;;;4994315;28;19910;-56
2022/04/09 03:14:30;;;;;;;;;;;16.00;65.60;;;;;;4994266;28;19909;-56
2022/04/09 03:16:56;;;;;;;;;;;16.00;66.10;;;;;;4994631;28;19913;-56
2022/04/09 03:19:21;;;;;;;;;;;16.00;66.00;;;;;;4994280;28;20438;-56
2022/04/09 03:21:47;;;;;;;;;;;16.00;66.20;;;;;;4994551;28;19924;-57
2022/04/09 03:24:12;;;;;;;;;;;16.00;66.60;;;;;;4994436;28;19910;-60
2022/04/09 03:26:38;;;;;;;;;;;16.00;67.00;;;;;;4994145;28;20257;-56
2022/04/09 03:29:03;;;;;;;;;;;15.90;67.80;;;;;;4994625;28;19914;-55
2022/04/09 03:31:29;;;;;;;;;;;15.80;68.00;;;;;;4994274;28;19937;-56
2022/04/09 03:33:55;;;;;;;;;;;15.80;68.20;;;;;;4994263;28;19913;-55
2022/04/09 03:36:21;;;;;;;;;;;15.80;68.60;;;;;;4994205;28;19956;-61
2022/04/09 03:38:46;;;;;;;;;;;15.80;69.00;;;;;;4994169;28;19961;-55
2022/04/09 03:41:12;;;;;;;;;;;15.80;68.70;;;;;;4992710;28;19918;-57
2022/04/09 03:43:37;;;;;;;;;;;15.80;69.00;;;;;;4992795;28;20475;-55
2022/04/09 03:46:03;;;;;;;;;;;15.80;69.00;;;;;;4994012;28;20417;-55
2022/04/09 03:48:29;;;;;;;;;;;15.70;69.10;;;;;;4994128;28;19910;-55
2022/04/09 03:50:54;;;;;;;;;;;15.70;68.90;;;;;;4994026;28;20380;-55
2022/04/09 03:53:20;;;;;;;;;;;15.70;69.00;;;;;;4993863;28;19926;-59
2022/04/09 03:55:46;;;;;;;;;;;15.70;69.10;;;;;;4993871;28;19921;-56
2022/04/09 03:58:14;;;;;;;;;;;15.70;69.10;;;;;;4994281;28;19910;-56
2022/04/09 04:00:39;;;;;;;;;;;15.80;69.10;;;;;;4994154;28;20424;-56
2022/04/09 04:03:07;;;;;;;;;;;15.80;68.90;;;;;;4993909;28;20009;-57
2022/04/09 04:05:33;;;;;;;;;;;15.70;68.80;;;;;;4993985;28;19910;-56
2022/04/09 04:07:59;;;;;;;;;;;15.70;68.80;;;;;;4997110;28;19917;-56
2022/04/09 04:10:24;;;;;;;;;;;15.70;68.90;;;;;;4997686;28;20362;-58
2022/04/09 04:12:50;;;;;;;;;;;15.70;68.70;;;;;;4997304;28;19914;-55
2022/04/09 04:15:15;;;;;;;;;;;15.60;68.30;;;;;;4997631;28;19910;-57
2022/04/09 04:17:42;;;;;;;;;;;15.60;68.50;;;;;;4997518;28;19910;-57
2022/04/09 04:20:08;;;;;;;;;;;15.60;68.60;;;;;;4997246;28;20281;-55
2022/04/09 04:22:33;;;;;;;;;;;15.60;68.50;;;;;;4997071;28;19918;-56
2022/04/09 04:24:59;;;;;;;;;;;15.70;68.30;;;;;;4997227;28;20357;-57
2022/04/09 04:27:24;;;;;;;;;;;15.60;68.10;;;;;;4997581;28;19921;-56
2022/04/09 04:29:50;;;;;;;;;;;15.70;67.70;;;;;;4997284;28;20432;-57
2022/04/09 04:32:15;;;;;;;;;;;15.70;67.70;;;;;;4997280;28;20333;-57
2022/04/09 04:34:41;;;;;;;;;;;15.80;67.80;;;;;;4997206;28;19956;-56
2022/04/09 04:37:06;;;;;;;;;;;15.80;67.60;;;;;;4996958;28;20369;-56
2022/04/09 04:39:32;;;;;;;;;;;15.70;67.50;;;;;;4996858;28;19909;-56
2022/04/09 04:41:58;;;;;;;;;;;15.80;67.30;;;;;;4997461;28;19924;-56
2022/04/09 04:44:23;;;;;;;;;;;15.70;67.70;;;;;;4997009;28;19910;-55
2022/04/09 04:46:49;;;;;;;;;;;15.70;67.70;;;;;;4997238;28;20274;-56
2022/04/09 04:49:14;;;;;;;;;;;15.70;67.90;;;;;;4996774;28;20329;-56
2022/04/09 04:51:40;;;;;;;;;;;15.70;67.70;;;;;;4996673;28;19910;-56
2022/04/09 04:54:05;;;;;;;;;;;15.70;67.70;;;;;;4997217;28;19918;-56
2022/04/09 04:56:31;;;;;;;;;;;15.70;67.70;;;;;;4996475;28;19929;-55
2022/04/09 04:58:56;;;;;;;;;;;15.70;67.70;;;;;;4996859;28;20263;-55
2022/04/09 05:01:22;;;;;;;;;;;15.70;67.70;;;;;;4996557;28;19918;-56
2022/04/09 05:03:48;;;;;;;;;;;15.70;67.60;;;;;;4996679;28;19909;-55
2022/04/09 05:06:13;;;;;;;;;;;15.70;67.50;;;;;;4996700;28;19910;-56
2022/04/09 05:08:40;;;;;;;;;;;15.70;67.40;;;;;;4996716;28;19917;-63
2022/04/09 05:11:05;;;;;;;;;;;15.70;67.20;;;;;;4996686;28;20234;-62
2022/04/09 05:13:31;;;;;;;;;;;15.70;67.10;;;;;;4996885;28;19910;-59
2022/04/09 05:15:56;;;;;;;;;;;15.60;66.90;;;;;;4996488;28;20365;-60
2022/04/09 05:18:22;;;;;;;;;;;15.70;66.70;;;;;;4995659;28;19910;-57
2022/04/09 05:20:49;;;;;;;;;;;15.70;66.60;;;;;;4996444;28;20000;-58
2022/04/09 05:23:14;;;;;;;;;;;15.70;66.50;;;;;;4996151;28;19925;-56
2022/04/09 05:25:41;;;;;;;;;;;15.70;66.30;;;;;;4996388;28;19910;-56
2022/04/09 05:28:08;;;;;;;;;;;15.70;66.20;;;;;;4996368;28;20008;-60
2022/04/09 05:30:34;;;;;;;;;;;15.80;65.90;;;;;;4996310;28;19910;-56
2022/04/09 05:32:59;;;;;;;;;;;15.80;65.60;;;;;;4996043;28;19917;-56
2022/04/09 05:35:25;;;;;;;;;;;15.80;65.30;;;;;;4995898;28;19914;-56
2022/04/09 05:37:51;;;;;;;;;;;15.80;64.80;;;;;;4995922;28;19995;-56
2022/04/09 05:40:17;;;;;;;;;;;15.80;64.70;;;;;;4995889;28;19972;-61
2022/04/09 05:42:43;;;;;;;;;;;15.80;64.40;;;;;;4995581;28;19995;-57
2022/04/09 05:45:12;;;;;;;;;;;15.80;63.90;;;;;;4995931;28;20373;-56
2022/04/09 05:47:41;;;;;;;;;;;15.80;64.10;;;;;;4995644;28;19914;-59
2022/04/09 05:50:07;;;;;;;;;;;15.80;63.80;;;;;;4995798;28;19910;-54
2022/04/09 05:52:33;;;;;;;;;;;15.80;63.60;;;;;;4995303;28;19916;-56
2022/04/09 05:54:59;;;;;;;;;;;15.80;63.50;;;;;;4995355;28;20000;-62
2022/04/09 05:57:24;;;;;;;;;;;15.90;65.00;;;;;;4995654;28;20401;-57
2022/04/09 05:59:50;;;;;;;;;;;16.10;65.10;;;;;;4995359;28;19964;-55
2022/04/09 06:02:15;;;;;;;;;;;16.30;65.10;;;;;;4995342;28;19964;-59
2022/04/09 06:04:41;;;;;;;;;;;16.40;64.60;;;;;;4995380;28;19917;-60
2022/04/09 06:07:06;;;;;;;;;;;16.60;63.00;;;;;;4995366;28;20415;-57
2022/04/09 06:09:32;;;;;;;;;;;16.60;62.00;;;;;;4995736;28;19914;-56
2022/04/09 06:11:57;;;;;;;;;;;16.60;63.80;;;;;;4993378;28;19953;-59
2022/04/09 06:14:23;;;;;;;;;;;16.70;61.60;;;;;;4994026;28;19956;-56
2022/04/09 06:16:50;;;;;;;;;;;16.70;62.00;;;;;;4985541;28;20005;-56
2022/04/09 06:19:15;;;;;;;;;;;16.70;62.30;;;;;;4984713;28;19914;-58
2022/04/09 06:21:41;;;;;;;;;;;16.80;63.00;;;;;;4983579;28;19977;-59
2022/04/09 06:24:06;;;;;;;;;;;16.80;60.30;;;;;;4985354;28;19910;-59
2022/04/09 06:26:32;;;;;;;;;;;16.50;60.80;;;;;;4992306;28;20388;-58
2022/04/09 06:28:57;;;;;;;;;;;16.40;61.60;;;;;;4994641;28;19913;-61
2022/04/09 06:31:23;;;;;;;;;;;16.40;61.90;;;;;;4994363;28;20018;-59
2022/04/09 06:33:48;;;;;;;;;;;16.30;62.10;;;;;;4994624;28;19972;-60
2022/04/09 06:36:14;;;;;;;;;;;16.30;62.20;;;;;;4994595;28;19913;-55
2022/04/09 06:38:40;;;;;;;;;;;16.30;62.50;;;;;;4994198;28;19968;-55
2022/04/09 06:41:05;;;;;;;;;;;16.30;62.50;;;;;;4994461;28;19944;-55
2022/04/09 06:43:31;;;;;;;;;;;16.30;62.70;;;;;;4994565;28;20417;-55
2022/04/09 06:45:57;;;;;;;;;;;16.30;62.70;;;;;;4994556;28;19917;-58
2022/04/09 06:48:22;;;;;;;;;;;16.30;62.70;;;;;;4994725;28;19910;-55
2022/04/09 06:50:48;;;;;;;;;;;16.40;62.70;;;;;;4994730;28;20361;-55
2022/04/09 06:53:14;;;;;;;;;;;16.30;62.80;;;;;;4994502;28;19913;-58
2022/04/09 06:55:41;;;;;;;;;;;16.30;62.70;;;;;;4993991;28;19968;-57
2022/04/09 06:58:06;;;;;;;;;;;16.40;62.40;;;;;;4994261;28;20357;-56
2022/04/09 07:00:33;;;;;;;;;;;16.30;62.20;;;;;;4994673;28;19910;-58
2022/04/09 07:03:00;;;;;;;;;;;16.20;62.60;;;;;;4994031;28;20422;-57
2022/04/09 07:05:26;;;;;;;;;;;16.30;62.80;;;;;;4994313;28;19920;-58
2022/04/09 07:07:52;;;;;;;;;;;16.30;62.80;;;;;;4994795;28;19914;-59
2022/04/09 07:10:17;;;;;;;;;;;16.40;62.70;;;;;;4994333;28;19917;-61
2022/04/09 07:12:43;;;;;;;;;;;16.40;62.40;;;;;;4994215;28;19917;-60
2022/04/09 07:15:09;;;;;;;;;;;16.40;61.70;;;;;;4994119;28;19910;-58
2022/04/09 07:17:35;;;;;;;;;;;16.30;62.70;;;;;;4994335;28;19996;-59
2022/04/09 07:20:02;;;;;;;;;;;16.40;64.20;;;;;;4993977;28;19920;-59
2022/04/09 07:22:27;;;;;;;;;;;16.50;61.20;;;;;;4993837;28;19924;-58
2022/04/09 07:24:53;;;;;;;;;;;16.50;61.00;;;;;;4994084;28;19939;-57
2022/04/09 07:27:20;;;;;;;;;;;16.50;61.20;;;;;;4994019;28;20000;-57
2022/04/09 07:29:46;;;;;;;;;;;16.50;60.50;;;;;;4993765;28;20281;-60
2022/04/09 07:32:11;;;;;;;;;;;16.40;61.00;;;;;;4993082;28;19921;-58
2022/04/09 07:34:37;;;;;;;;;;;16.40;61.30;;;;;;4993374;28;20340;-56
2022/04/09 07:37:03;;;;;;;;;;;16.40;61.30;;;;;;4993330;28;19914;-56
2022/04/09 07:39:29;;;;;;;;;;;16.40;60.50;;;;;;4991745;28;19958;-56
2022/04/09 07:41:55;;;;;;;;;;;16.40;60.40;;;;;;4994717;28;19922;-57
2022/04/09 07:44:22;;;;;;;;;;;16.40;60.10;;;;;;4997474;28;19925;-56
2022/04/09 07:46:48;;;;;;;;;;;16.40;60.40;;;;;;4997437;28;19910;-57
2022/04/09 07:49:14;;;;;;;;;;;16.40;60.00;;;;;;4997823;28;19910;-58
2022/04/09 07:51:39;;;;;;;;;;;16.40;60.40;;;;;;4997434;28;19992;-60
2022/04/09 07:54:05;;;;;;;;;;;16.40;59.70;;;;;;4997976;28;20408;-56
2022/04/09 07:56:30;;;;;;;;;;;16.40;60.00;;;;;;4996272;28;20305;-57
2022/04/09 07:58:56;;;;;;;;;;;16.50;59.40;;;;;;4996067;28;20352;-61
2022/04/09 08:01:21;;;;;;;;;;;16.50;59.60;;;;;;4996945;28;20841;-57
2022/04/09 08:03:49;;;;;;;;;;;16.50;59.40;;;;;;4997444;28;20309;-57
2022/04/09 08:06:14;;;;;;;;;;;16.50;59.40;;;;;;4997302;28;19996;-58
2022/04/09 08:08:40;;;;;;;;;;;16.60;59.60;;;;;;4987715;28;19917;-60
2022/04/09 08:11:06;;;;;;;;;;;16.60;59.00;;;;;;4987510;28;19997;-59
2022/04/09 08:13:31;;;;;;;;;;;16.70;58.40;;;;;;4984686;28;20378;-59
2022/04/09 08:15:57;;;;;;;;;;;16.70;57.90;;;;;;4996843;28;19917;-61
2022/04/09 08:18:22;;;;;;;;;;;16.80;57.60;;;;;;4996825;28;20000;-58
2022/04/09 08:20:48;;;;;;;;;;;16.70;57.00;;;;;;4986328;28;19920;-61
2022/04/09 08:23:13;;;;;;;;;;;16.70;57.60;;;;;;4986482;28;20425;-66
2022/04/09 08:25:39;;;;;;;;;;;16.80;57.70;;;;;;4986139;28;20006;-62
2022/04/09 08:28:04;;;;;;;;;;;16.80;57.80;;;;;;4997189;28;19910;-58
2022/04/09 08:30:30;;;;;;;;;;;16.80;56.60;;;;;;4997285;28;19916;-62
2022/04/09 08:32:57;;;;;;;;;;;16.80;56.40;;;;;;4996856;28;19971;-60
2022/04/09 08:35:22;;;;;;;;;;;16.90;56.40;;;;;;4996642;28;19953;-57
2022/04/09 08:37:54;;;;;;;;;;;16.90;56.50;;;;;;4996870;28;19917;-60
2022/04/09 08:40:21;;;;;;;;;;;16.90;56.30;;;;;;4996995;28;19910;-58
2022/04/09 08:42:47;;;;;;;;;;;16.80;57.20;;;;;;4996644;28;20301;-59
2022/04/09 08:45:13;;;;;;;;;;;16.90;57.10;;;;;;4996943;28;19910;-62
2022/04/09 08:47:41;;;;;;;;;;;17.00;57.50;;;;;;4996823;28;19917;-57
2022/04/09 08:50:07;;;;;;;;;;;17.10;57.50;;;;;;4996265;28;19917;-58
2022/04/09 08:52:33;;;;;;;;;;;17.20;57.20;;;;;;4995914;28;20308;-58
2022/04/09 08:54:59;;;;;;;;;;;17.20;57.80;;;;;;4995678;28;19972;-58
2022/04/09 08:57:25;;;;;;;;;;;17.30;58.30;;;;;;4996624;28;19921;-60
2022/04/09 08:59:53;;;;;;;;;;;17.40;58.10;;;;;;4996470;28;19910;-59
2022/04/09 09:02:20;;;;;;;;;;;17.50;57.90;;;;;;4988164;28;20381;-58
2022/04/09 09:04:45;;;;;;;;;;;17.40;58.00;;;;;;4986917;28;20408;-60
2022/04/09 09:07:24;;;;;;;;;;;17.40;58.50;;;;;;4985031;28;19911;-57
2022/04/09 09:09:51;;;;;;;;;;;17.50;58.20;;;;;;4995661;28;20344;-63
2022/04/09 09:12:27;;;;;;;;;;;17.50;58.00;;;;;;4994382;28;19992;-59
2022/04/09 09:14:53;;;;;;;;;;;17.60;58.30;;;;;;4993127;28;19910;-60
2022/04/09 09:17:25;;;;;;;;;;;17.70;58.30;;;;;;4995662;28;19965;-59
2022/04/09 09:19:51;;;;;;;;;;;17.80;57.90;;;;;;4996010;28;20369;-59
2022/04/09 09:22:18;;;;;;;;;;;17.90;57.60;;;;;;4995842;28;19924;-58
2022/04/09 09:25:00;;;;;;;;;;;17.90;57.70;;;;;;4995860;28;19910;-62
2022/04/09 09:27:26;;;;;;;;;;;18.00;57.60;;;;;;4995091;28;19914;-60
2022/04/09 09:29:53;;;;;;;;;;;17.90;57.50;;;;;;4996096;28;19917;-61
2022/04/09 09:32:24;;;;;;;;;;;17.90;57.80;;;;;;4999563;28;20289;-60
2022/04/09 09:34:54;;;;;;;;;;;17.90;58.10;;;;;;5001824;28;19921;-58
2022/04/09 09:37:20;;;;;;;;;;;18.00;57.70;;;;;;5003994;28;19917;-58
2022/04/09 09:39:46;;;;;;;;;;;18.00;57.70;;;;;;4995693;28;19913;-58
2022/04/09 09:42:17;;;;;;;;;;;18.00;57.50;;;;;;4995777;28;19918;-56
2022/04/09 09:44:43;;;;;;;;;;;18.00;54.70;;;;;;4995436;28;19928;-58
2022/04/09 09:47:09;;;;;;;;;;;18.10;54.30;;;;;;4995768;28;19910;-57
2022/04/09 09:49:55;;;;;;;;;;;18.10;54.50;;;;;;4995699;28;19913;-58
2022/04/09 09:52:36;;;;;;;;;;;18.10;54.90;;;;;;4995476;28;19921;-57
2022/04/09 09:55:10;;;;;;;;;;;18.20;54.60;;;;;;4995274;28;20012;-59
2022/04/09 09:57:38;;;;;;;;;;;18.30;52.50;;;;;;4995716;28;20324;-57
2022/04/09 10:00:10;;;;;;;;;;;18.40;51.90;;;;;;4995624;28;20345;-57
2022/04/09 10:02:37;;;;;;;;;;;18.40;51.10;;;;;;4995218;28;19922;-57
2022/04/09 10:05:02;;;;;;;;;;;18.40;51.30;;;;;;4993519;28;20397;-61
2022/04/09 10:07:28;;;;;;;;;;;18.40;50.60;;;;;;4995470;28;19949;-63
2022/04/09 10:09:54;;;;;;;;;;;18.50;50.80;;;;;;4995643;28;19910;-58
2022/04/09 10:12:20;;;;;;;;;;;18.60;50.00;;;;;;4995326;28;19957;-65
2022/04/09 10:14:51;;;;;;;;;;;18.60;50.40;;;;;;4995270;28;19914;-66
2022/04/09 10:17:22;;;;;;;;;;;18.80;50.30;;;;;;4995297;28;19909;-61
2022/04/09 10:19:55;;;;;;;;;;;19.00;50.60;;;;;;4995158;28;19914;-64
2022/04/09 10:22:25;;;;;;;;;;;18.90;49.10;;;;;;4994939;28;19917;-61
2022/04/09 10:24:52;;;;;;;;;;;18.90;48.60;;;;;;4995182;28;19914;-68
2022/04/09 10:27:33;;;;;;;;;;;19.00;49.10;;;;;;4995010;28;19928;-59
2022/04/09 10:29:59;;;;;;;;;;;19.10;48.50;;;;;;4995077;28;20293;-62
2022/04/09 10:32:44;;;;;;;;;;;19.10;50.70;;;;;;4994877;28;19921;-68
2022/04/09 10:35:22;;;;;;;;;;;19.20;49.00;;;;;;4995223;28;19965;-57
2022/04/09 10:38:22;;;;;;;;;;;19.40;49.10;;;;;;4994893;28;19914;-58
2022/04/09 10:40:49;;;;;;;;;;;19.40;46.70;;;;;;4973182;28;19910;-57
2022/04/09 10:43:19;;;;;;;;;;;19.30;46.90;;;;;;4989659;28;20443;-58
2022/04/09 10:46:04;;;;;;;;;;;19.30;48.00;;;;;;4994592;28;19910;-59
2022/04/09 10:48:33;;;;;;;;;;;19.40;46.70;;;;;;4994610;28;19957;-59
2022/04/09 10:51:08;;;;;;;;;;;19.40;47.50;;;;;;4994549;28;19945;-59
2022/04/09 10:53:35;;;;;;;;;;;19.60;47.10;;;;;;4994680;28;20376;-59
2022/04/09 10:56:24;;;;;;;;;;;19.80;47.30;;;;;;4994486;28;19926;-58
2022/04/09 10:59:01;;;;;;;;;;;20.00;46.50;;;;;;4994548;28;19920;-57
2022/04/09 11:01:51;;;;;;;;;;;20.20;46.90;;;;;;4994559;28;19913;-59
2022/04/09 11:04:34;;;;;;;;;;;20.30;45.50;;;;;;4994669;28;19959;-58
2022/04/09 11:07:16;;;;;;;;;;;20.50;45.40;;;;;;4994555;28;19925;-58
2022/04/09 11:09:48;;;;;;;;;;;20.30;46.10;;;;;;4994624;28;20281;-58
2022/04/09 11:12:15;;;;;;;;;;;20.40;45.30;;;;;;4994025;28;19910;-59
2022/04/09 11:14:41;;;;;;;;;;;20.40;45.00;;;;;;4992368;28;19933;-59
2022/04/09 11:17:24;;;;;;;;;;;20.50;44.70;;;;;;4988600;28;20318;-58
2022/04/09 11:19:50;;;;;;;;;;;20.40;44.60;;;;;;4974405;28;19910;-60
2022/04/09 11:22:16;;;;;;;;;;;20.40;44.80;;;;;;4974241;28;19925;-59
2022/04/09 11:24:41;;;;;;;;;;;20.30;45.70;;;;;;4974210;28;19910;-59
2022/04/09 11:27:07;;;;;;;;;;;20.20;45.60;;;;;;4974302;28;20366;-59
2022/04/09 11:29:36;;;;;;;;;;;20.30;45.90;;;;;;4974296;28;19917;-60
2022/04/09 11:32:02;;;;;;;;;;;20.40;45.40;;;;;;4973586;28;19910;-59
2022/04/09 11:34:28;;;;;;;;;;;20.50;45.70;;;;;;4972921;28;20009;-58
2022/04/09 11:37:10;;;;;;;;;;;20.60;44.30;;;;;;4973252;28;19953;-58
2022/04/09 11:39:42;;;;;;;;;;;20.60;43.90;;;;;;4972905;28;20042;-58
2022/04/09 11:42:08;;;;;;;;;;;20.90;45.00;;;;;;4972766;28;19919;-56
2022/04/09 11:44:35;;;;;;;;;;;21.00;42.90;;;;;;4972600;28;19917;-58
2022/04/09 11:47:13;;;;;;;;;;;20.90;42.90;;;;;;4972663;28;19914;-56
2022/04/09 11:49:40;;;;;;;;;;;20.60;43.40;;;;;;4972820;28;19937;-56
2022/04/09 11:52:05;;;;;;;;;;;20.50;45.30;;;;;;4972770;28;19930;-57
2022/04/09 11:54:32;;;;;;;;;;;20.60;44.70;;;;;;4972994;28;20273;-58
2022/04/09 11:56:58;;;;;;;;;;;20.60;43.70;;;;;;4972672;28;20005;-57
2022/04/09 11:59:23;;;;;;;;;;;20.40;43.80;;;;;;4972249;28;20334;-55
2022/04/09 12:01:51;;;;;;;;;;;20.20;44.00;;;;;;4971787;28;19922;-53
2022/04/09 12:04:17;;;;;;;;;;;20.20;44.00;;;;;;4971960;28;19985;-56
2022/04/09 12:06:43;;;;;;;;;;;20.20;44.00;;;;;;4972088;28;19929;-54
2022/04/09 12:09:09;;;;;;;;;;;20.30;45.10;;;;;;4972402;28;20313;-54
2022/04/09 12:11:39;;;;;;;;;;;20.30;44.70;;;;;;4971981;28;19910;-56
2022/04/09 12:14:13;;;;;;;;;;;20.30;45.00;;;;;;4972513;28;20254;-56
2022/04/09 12:16:39;;;;;;;;;;;20.50;45.20;;;;;;4971034;28;19910;-54
2022/04/09 12:19:06;;;;;;;;;;;20.70;44.60;;;;;;4972804;28;19992;-54
2022/04/09 12:21:32;;;;;;;;;;;19.20;37.50;;;;;;4972372;28;20403;-56
2022/04/09 12:24:02;;;;;;;;;;;17.80;40.20;;;;;;4972699;28;19910;-57
2022/04/09 12:26:28;;;;;;;;;;;16.70;41.10;;;;;;4972392;28;19920;-57
2022/04/09 12:29:09;;;;;;;;;;;16.10;42.50;;;;;;4974405;28;19914;-56
2022/04/09 12:31:35;;;;;;;;;;;15.70;43.20;;;;;;4975243;28;20330;-56
2022/04/09 12:34:01;;;;;;;;;;;15.30;43.20;;;;;;4975367;28;20374;-56
2022/04/09 12:36:27;;;;;;;;;;;14.90;43.70;;;;;;4980976;28;19910;-57
2022/04/09 12:38:52;;;;;;;;;;;14.50;44.70;;;;;;4991272;28;20425;-55
2022/04/09 12:41:18;;;;;;;;;;;14.00;45.50;;;;;;4976242;28;19914;-56
2022/04/09 12:43:43;;;;;;;;;;;13.90;46.00;;;;;;4976536;28;19922;-56
2022/04/09 12:46:10;;;;;;;;;;;13.60;46.70;;;;;;4982105;28;19910;-57
2022/04/09 12:48:36;;;;;;;;;;;13.70;47.10;;;;;;4976614;28;19965;-58
2022/04/09 12:51:02;;;;;;;;;;;13.60;47.70;;;;;;4981383;28;19910;-58
2022/04/09 12:53:28;;;;;;;;;;;13.70;47.00;;;;;;4975335;28;20021;-57
2022/04/09 12:55:53;;;;;;;;;;;13.80;47.00;;;;;;4980461;28;19936;-58
2022/04/09 12:58:19;;;;;;;;;;;14.00;46.10;;;;;;4988955;28;19952;-58
2022/04/09 13:00:44;;;;;;;;;;;13.90;46.00;;;;;;4994758;28;20000;-59
2022/04/09 13:03:10;;;;;;;;;;;13.60;46.60;;;;;;4994743;28;19926;-56
2022/04/09 13:05:36;;;;;;;;;;;13.40;46.80;;;;;;4994815;28;19920;-60
2022/04/09 13:08:01;;;;;;;;;;;13.00;47.60;;;;;;4995322;28;19910;-58
2022/04/09 13:10:27;;;;;;;;;;;12.70;48.30;;;;;;4996080;28;19909;-58
2022/04/09 13:12:53;;;;;;;;;;;12.50;48.50;;;;;;4995416;28;20401;-56
2022/04/09 13:15:19;;;;;;;;;;;12.60;48.80;;;;;;4995606;28;20254;-62
2022/04/09 13:17:44;;;;;;;;;;;12.30;49.20;;;;;;4995376;28;19929;-56
2022/04/09 13:20:10;;;;;;;;;;;12.00;50.20;;;;;;4994705;28;20324;-56
2022/04/09 13:22:36;;;;;;;;;;;11.90;51.20;;;;;;4994896;28;19926;-57
2022/04/09 13:25:04;;;;;;;;;;;11.70;52.10;;;;;;4995167;28;19909;-54
2022/04/09 13:27:30;;;;;;;;;;;11.40;55.20;;;;;;4995118;28;20262;-54
2022/04/09 13:29:56;;;;;;;;;;;11.10;57.00;;;;;;4994357;28;19972;-71
2022/04/09 13:32:22;;;;;;;;;;;10.70;58.60;;;;;;4993363;28;19932;-63
2022/04/09 13:34:48;;;;;;;;;;;10.40;59.80;;;;;;4994933;28;19910;-55
2022/04/09 13:37:14;;;;;;;;;;;10.40;61.10;;;;;;4993633;28;19910;-57
2022/04/09 13:39:40;;;;;;;;;;;10.00;64.20;;;;;;4992662;28;19909;-56
2022/04/09 13:42:07;;;;;;;;;;;9.80;65.10;;;;;;4994669;28;19917;-55
2022/04/09 13:44:33;;;;;;;;;;;9.70;64.80;;;;;;4995010;28;19910;-56
2022/04/09 13:46:58;;;;;;;;;;;9.80;64.40;;;;;;4995060;28;20276;-59
2022/04/09 13:49:24;;;;;;;;;;;9.70;63.80;;;;;;4994819;28;19910;-59
2022/04/09 13:51:50;;;;;;;;;;;9.60;64.80;;;;;;4993071;28;20425;-55
2022/04/09 13:54:15;;;;;;;;;;;9.60;64.50;;;;;;4993305;28;20016;-55
2022/04/09 13:56:41;;;;;;;;;;;9.70;62.70;;;;;;4992996;28;20392;-55
2022/04/09 13:59:06;;;;;;;;;;;9.60;63.40;;;;;;4993067;28;20047;-56
2022/04/09 14:01:32;;;;;;;;;;;9.70;64.30;;;;;;4988925;28;20012;-57
2022/04/09 14:03:58;;;;;;;;;;;9.70;62.00;;;;;;4990037;28;19924;-58
2022/04/09 14:06:24;;;;;;;;;;;9.70;62.30;;;;;;4992556;28;19910;-56
2022/04/09 14:08:50;;;;;;;;;;;9.50;65.50;;;;;;4992907;28;19974;-57
2022/04/09 14:11:15;;;;;;;;;;;9.30;67.50;;;;;;4992517;28;19972;-56
2022/04/09 14:13:41;;;;;;;;;;;9.30;66.20;;;;;;4993005;28;20011;-56
2022/04/09 14:16:06;;;;;;;;;;;8.90;67.70;;;;;;4992910;28;19917;-59
2022/04/09 14:18:32;;;;;;;;;;;8.80;68.60;;;;;;4992918;28;19916;-62
2022/04/09 14:20:58;;;;;;;;;;;8.80;69.00;;;;;;4993382;28;19917;-65